createdAt,value
2019-05-06T00:01:54.179Z,31.65
2019-05-06T00:04:24.691Z,31.58
2019-05-06T00:06:54.995Z,31.48
2019-05-06T00:09:26.909Z,31.40
2019-05-06T00:11:56.389Z,31.33
2019-05-06T00:14:25.961Z,31.25
2019-05-06T00:16:58.547Z,31.17
2019-05-06T00:19:29.738Z,31.09
2019-05-06T00:21:59.181Z,31.02
2019-05-06T00:24:34.819Z,30.94
2019-05-06T00:27:18.365Z,30.85
2019-05-06T00:29:47.907Z,30.78
2019-05-06T00:32:21.509Z,30.70
2019-05-06T00:34:51.039Z,30.67
2019-05-06T00:37:24.075Z,30.64
2019-05-06T00:40:04.630Z,30.59
2019-05-06T00:42:36.797Z,30.58
2019-05-06T00:45:07.890Z,30.55
2019-05-06T00:47:37.620Z,30.53
2019-05-06T00:50:08.147Z,30.50
2019-05-06T00:52:38.018Z,30.45
2019-05-06T00:55:07.856Z,30.44
2019-05-06T00:57:46.726Z,30.41
2019-05-06T01:00:24.468Z,30.35
2019-05-06T01:02:54.382Z,30.30
2019-05-06T01:05:24.517Z,30.26
2019-05-06T01:07:54.900Z,30.20
2019-05-06T01:10:24.935Z,30.16
2019-05-06T01:13:06.382Z,30.12
2019-05-06T01:15:35.844Z,30.08
2019-05-06T01:18:06.168Z,30.02
2019-05-06T01:20:35.719Z,30.03
2019-05-06T01:23:05.235Z,29.97
2019-05-06T01:25:37.736Z,29.92
2019-05-06T01:28:07.409Z,29.90
2019-05-06T01:30:40.036Z,29.85
2019-05-06T01:33:10.917Z,29.81
2019-05-06T01:35:44.364Z,29.77
2019-05-06T01:38:28.872Z,29.74
2019-05-06T01:41:26.477Z,29.71
2019-05-06T01:43:56.116Z,29.68
2019-05-06T01:46:25.922Z,29.62
2019-05-06T01:48:55.522Z,29.60
2019-05-06T01:51:25.120Z,29.57
2019-05-06T01:53:54.720Z,29.51
2019-05-06T01:56:24.319Z,29.48
2019-05-06T01:58:53.845Z,29.46
2019-05-06T02:01:25.121Z,29.42
2019-05-06T02:03:54.730Z,29.38
2019-05-06T02:06:24.951Z,29.35
2019-05-06T02:08:55.103Z,29.32
2019-05-06T02:11:24.692Z,29.30
2019-05-06T02:13:54.194Z,29.24
2019-05-06T02:16:24.158Z,29.20
2019-05-06T02:18:54.164Z,29.16
2019-05-06T02:21:43.697Z,29.15
2019-05-06T02:24:24.204Z,29.11
2019-05-06T02:26:54.216Z,29.06
2019-05-06T02:29:26.316Z,29.08
2019-05-06T02:32:31.509Z,29.04
2019-05-06T02:35:30.692Z,29.01
2019-05-06T02:38:07.539Z,28.99
2019-05-06T02:40:37.426Z,28.90
2019-05-06T02:43:06.992Z,28.83
2019-05-06T02:45:36.839Z,28.73
2019-05-06T02:48:13.777Z,28.65
2019-05-06T02:50:59.059Z,28.60
2019-05-06T02:53:28.591Z,28.51
2019-05-06T02:55:58.095Z,28.45
2019-05-06T02:58:27.580Z,28.38
2019-05-06T03:00:59.199Z,28.31
2019-05-06T03:03:28.647Z,28.28
2019-05-06T03:05:58.087Z,28.23
2019-05-06T03:08:32.699Z,28.14
2019-05-06T03:11:04.303Z,28.07
2019-05-06T03:13:34.566Z,28.06
2019-05-06T03:16:05.821Z,28.00
2019-05-06T03:18:35.633Z,27.96
2019-05-06T03:21:16.906Z,27.88
2019-05-06T03:23:53.964Z,27.80
2019-05-06T03:26:23.555Z,27.75
2019-05-06T03:28:56.310Z,27.69
2019-05-06T03:31:26.743Z,27.64
2019-05-06T03:34:22.195Z,27.57
2019-05-06T03:36:34.387Z,27.48
2019-05-06T03:38:59.217Z,27.43
2019-05-06T03:41:28.742Z,27.35
2019-05-06T03:43:58.410Z,27.24
2019-05-06T03:46:46.100Z,27.16
2019-05-06T03:49:15.598Z,27.07
2019-05-06T03:51:48.781Z,26.96
2019-05-06T03:54:19.002Z,26.86
2019-05-06T03:56:50.294Z,26.74
2019-05-06T03:59:23.397Z,26.65
2019-05-06T04:01:54.917Z,26.53
2019-05-06T04:04:24.417Z,26.39
2019-05-06T04:06:54.181Z,26.29
2019-05-06T04:09:25.620Z,26.18
2019-05-06T04:11:55.789Z,26.10
2019-05-06T04:14:25.939Z,26.02
2019-05-06T04:17:03.483Z,25.96
2019-05-06T04:19:45.509Z,25.87
2019-05-06T04:22:27.603Z,25.79
2019-05-06T04:25:06.113Z,25.71
2019-05-06T04:27:48.237Z,25.64
2019-05-06T04:30:18.628Z,25.57
2019-05-06T04:32:48.379Z,25.49
2019-05-06T04:35:18.245Z,25.38
2019-05-06T04:37:47.944Z,25.31
2019-05-06T04:40:17.878Z,25.21
2019-05-06T04:42:47.851Z,25.14
2019-05-06T04:45:17.789Z,25.06
2019-05-06T04:47:47.428Z,25.01
2019-05-06T04:50:17.089Z,24.91
2019-05-06T04:52:50.347Z,24.85
2019-05-06T04:55:23.091Z,24.79
2019-05-06T04:57:53.575Z,24.73
2019-05-06T05:00:23.488Z,24.69
2019-05-06T05:02:54.983Z,24.61
2019-05-06T05:05:24.398Z,24.57
2019-05-06T05:07:54.187Z,24.50
2019-05-06T05:10:27.819Z,24.43
2019-05-06T05:13:08.659Z,24.40
2019-05-06T05:16:03.266Z,24.34
2019-05-06T05:18:45.653Z,24.26
2019-05-06T05:21:15.328Z,24.23
2019-05-06T05:23:45.811Z,24.20
2019-05-06T05:26:15.606Z,24.15
2019-05-06T05:28:48.228Z,24.13
2019-05-06T05:31:17.911Z,24.11
2019-05-06T05:33:47.485Z,24.07
2019-05-06T05:36:17.406Z,24.04
2019-05-06T05:38:47.140Z,24.03
2019-05-06T05:41:17.071Z,23.99
2019-05-06T05:44:22.711Z,23.96
2019-05-06T05:46:52.530Z,23.94
2019-05-06T05:49:32.457Z,23.96
2019-05-06T05:52:03.706Z,23.93
2019-05-06T05:54:33.353Z,23.91
2019-05-06T05:57:03.382Z,23.92
2019-05-06T05:59:33.160Z,23.87
2019-05-06T06:02:04.102Z,23.86
2019-05-06T06:04:33.929Z,23.84
2019-05-06T06:07:03.390Z,24.08
2019-05-06T06:09:43.621Z,24.33
2019-05-06T06:12:13.233Z,24.51
2019-05-06T06:14:55.765Z,24.65
2019-05-06T06:17:45.261Z,24.71
2019-05-06T06:20:32.783Z,24.79
2019-05-06T06:23:09.849Z,24.81
2019-05-06T06:25:42.394Z,24.95
2019-05-06T06:28:12.037Z,25.28
2019-05-06T06:30:52.038Z,25.39
2019-05-06T06:33:22.320Z,25.51
2019-05-06T06:36:02.848Z,25.70
2019-05-06T06:38:54.313Z,25.84
2019-05-06T06:41:24.206Z,26.36
2019-05-06T06:43:57.962Z,26.72
2019-05-06T06:46:27.402Z,27.05
2019-05-06T06:48:57.028Z,27.20
2019-05-06T06:51:26.486Z,27.18
2019-05-06T06:53:57.524Z,27.18
2019-05-06T06:56:42.415Z,27.20
2019-05-06T06:59:22.217Z,27.26
2019-05-06T07:02:17.880Z,27.28
2019-05-06T07:04:54.066Z,27.56
2019-05-06T07:07:40.176Z,27.71
2019-05-06T07:09:59.030Z,27.75
2019-05-06T07:12:28.703Z,27.81
2019-05-06T07:15:02.243Z,27.89
2019-05-06T07:17:32.772Z,27.96
2019-05-06T07:20:06.080Z,28.03
2019-05-06T07:22:39.076Z,28.11
2019-05-06T07:25:12.689Z,28.20
2019-05-06T07:27:45.047Z,28.31
2019-05-06T07:30:15.341Z,28.37
2019-05-06T07:32:44.822Z,28.44
2019-05-06T07:35:14.515Z,28.49
2019-05-06T07:37:43.987Z,28.55
2019-05-06T07:40:22.049Z,28.58
2019-05-06T07:42:53.245Z,28.57
2019-05-06T07:45:29.619Z,28.57
2019-05-06T07:48:03.613Z,28.59
2019-05-06T07:50:33.448Z,28.59
2019-05-06T07:53:08.529Z,28.56
2019-05-06T07:55:39.219Z,28.59
2019-05-06T07:58:08.746Z,28.62
2019-05-06T08:00:38.404Z,28.67
2019-05-06T08:03:07.884Z,28.69
2019-05-06T08:05:54.723Z,28.73
2019-05-06T08:08:14.415Z,28.78
2019-05-06T08:10:43.849Z,28.82
2019-05-06T08:13:13.368Z,28.86
2019-05-06T08:15:42.968Z,28.89
2019-05-06T08:18:23.017Z,28.87
2019-05-06T08:20:52.603Z,28.89
2019-05-06T08:23:28.488Z,28.88
2019-05-06T08:26:10.114Z,28.85
2019-05-06T08:28:38.574Z,28.85
2019-05-06T08:31:02.405Z,28.81
2019-05-06T08:33:32.716Z,28.84
2019-05-06T08:36:11.681Z,28.82
2019-05-06T08:38:53.256Z,28.81
2019-05-06T08:41:22.870Z,28.81
2019-05-06T08:43:52.973Z,28.80
2019-05-06T08:46:23.427Z,28.81
2019-05-06T08:48:53.302Z,28.78
2019-05-06T08:51:42.632Z,28.76
2019-05-06T08:54:18.210Z,28.73
2019-05-06T08:56:47.826Z,28.71
2019-05-06T08:59:17.287Z,28.70
2019-05-06T09:01:49.029Z,28.69
2019-05-06T09:04:18.510Z,28.66
2019-05-06T09:06:47.981Z,28.66
2019-05-06T09:09:17.435Z,28.61
2019-05-06T09:11:46.976Z,28.57
2019-05-06T09:14:16.464Z,28.55
2019-05-06T09:16:45.966Z,28.57
2019-05-06T09:19:15.455Z,28.57
2019-05-06T09:21:46.389Z,28.61
2019-05-06T09:24:16.035Z,28.62
2019-05-06T09:27:12.324Z,28.65
2019-05-06T09:29:52.211Z,28.72
2019-05-06T09:32:36.049Z,28.71
2019-05-06T09:35:04.086Z,28.74
2019-05-06T09:37:33.660Z,28.78
2019-05-06T09:40:03.329Z,28.79
2019-05-06T09:42:32.741Z,28.82
2019-05-06T09:45:02.503Z,28.82
2019-05-06T09:47:53.033Z,28.83
2019-05-06T09:50:37.620Z,28.84
2019-05-06T09:53:09.317Z,28.82
2019-05-06T09:56:03.950Z,28.83
2019-05-06T09:58:34.642Z,28.82
2019-05-06T10:01:04.647Z,28.79
2019-05-06T10:03:34.175Z,28.81
2019-05-06T10:06:03.702Z,28.85
2019-05-06T10:08:33.160Z,28.87
2019-05-06T10:11:03.324Z,28.86
2019-05-06T10:13:33.010Z,28.84
2019-05-06T10:16:03.121Z,28.85
2019-05-06T10:18:32.701Z,28.87
2019-05-06T10:21:02.426Z,28.88
2019-05-06T10:23:32.762Z,28.91
2019-05-06T10:26:04.529Z,28.89
2019-05-06T10:28:52.362Z,28.90
2019-05-06T10:31:22.039Z,28.90
2019-05-06T10:34:09.444Z,28.91
2019-05-06T10:36:48.158Z,28.93
2019-05-06T10:39:20.362Z,28.93
2019-05-06T10:41:56.002Z,28.94
2019-05-06T10:44:38.851Z,28.95
2019-05-06T10:47:08.378Z,28.96
2019-05-06T10:49:37.951Z,28.98
2019-05-06T10:52:27.443Z,28.97
2019-05-06T10:54:56.985Z,28.97
2019-05-06T10:57:36.530Z,28.95
2019-05-06T11:00:07.693Z,28.97
2019-05-06T11:02:59.437Z,28.97
2019-05-06T11:05:29.094Z,28.97
2019-05-06T11:07:58.755Z,28.97
2019-05-06T11:10:35.511Z,28.94
2019-05-06T11:12:59.605Z,28.93
2019-05-06T11:15:29.093Z,28.93
2019-05-06T11:17:58.691Z,28.91
2019-05-06T11:20:28.186Z,28.92
2019-05-06T11:22:57.697Z,28.91
2019-05-06T11:25:27.239Z,28.90
2019-05-06T11:27:56.724Z,28.89
2019-05-06T11:30:45.214Z,28.89
2019-05-06T11:33:42.636Z,28.89
2019-05-06T11:36:19.833Z,28.87
2019-05-06T11:38:49.360Z,28.88
2019-05-06T11:41:18.938Z,28.89
2019-05-06T11:43:48.494Z,28.90
2019-05-06T11:46:17.997Z,28.89
2019-05-06T11:48:47.506Z,28.85
2019-05-06T11:51:19.706Z,28.85
2019-05-06T11:53:49.189Z,28.83
2019-05-06T11:56:18.721Z,28.83
2019-05-06T11:58:53.338Z,28.82
2019-05-06T12:01:33.003Z,28.77
2019-05-06T12:04:02.977Z,28.79
2019-05-06T12:06:33.154Z,28.77
2019-05-06T12:09:06.419Z,28.74
2019-05-06T12:11:35.122Z,28.72
2019-05-06T12:14:04.760Z,28.67
2019-05-06T12:16:34.470Z,28.69
2019-05-06T12:19:04.048Z,28.62
2019-05-06T12:21:33.543Z,28.61
2019-05-06T12:24:03.182Z,28.58
2019-05-06T12:26:32.721Z,28.56
2019-05-06T12:29:02.441Z,28.55
2019-05-06T12:31:32.902Z,28.52
2019-05-06T12:34:02.900Z,28.49
2019-05-06T12:36:32.828Z,28.47
2019-05-06T12:39:24.878Z,28.45
2019-05-06T12:42:16.025Z,28.44
2019-05-06T12:44:53.621Z,28.41
2019-05-06T12:47:42.703Z,28.41
2019-05-06T12:50:12.466Z,28.40
2019-05-06T12:52:44.149Z,28.38
2019-05-06T12:55:20.713Z,28.35
2019-05-06T12:57:44.898Z,28.33
2019-05-06T13:00:15.682Z,28.33
2019-05-06T13:02:45.166Z,28.29
2019-05-06T13:05:15.289Z,28.28
2019-05-06T13:07:46.684Z,28.25
2019-05-06T13:10:22.780Z,28.23
2019-05-06T13:13:16.507Z,28.22
2019-05-06T13:15:46.100Z,28.19
2019-05-06T13:18:15.747Z,28.17
2019-05-06T13:20:49.818Z,28.15
2019-05-06T13:23:39.478Z,28.11
2019-05-06T13:26:09.203Z,28.10
2019-05-06T13:28:42.589Z,28.06
2019-05-06T13:31:20.003Z,28.02
2019-05-06T13:33:54.875Z,27.99
2019-05-06T13:36:24.710Z,27.97
2019-05-06T13:39:09.535Z,27.96
2019-05-06T13:41:25.638Z,27.92
2019-05-06T13:44:23.298Z,27.92
2019-05-06T13:46:54.640Z,27.88
2019-05-06T13:49:49.083Z,27.87
2019-05-06T13:52:22.926Z,27.85
2019-05-06T13:54:53.046Z,27.85
2019-05-06T13:57:22.882Z,27.82
2019-05-06T13:59:53.233Z,27.78
2019-05-06T14:02:45.021Z,27.75
2019-05-06T14:05:14.789Z,27.75
2019-05-06T14:07:44.377Z,27.76
2019-05-06T14:10:15.309Z,27.74
2019-05-06T14:12:44.834Z,27.73
2019-05-06T14:15:15.156Z,27.72
2019-05-06T14:17:44.705Z,27.71
2019-05-06T14:20:14.784Z,27.73
2019-05-06T14:22:44.273Z,27.71
2019-05-06T14:25:37.945Z,27.69
2019-05-06T14:28:32.527Z,27.68
2019-05-06T14:31:05.981Z,27.65
2019-05-06T14:33:35.436Z,27.66
2019-05-06T14:36:04.967Z,27.66
2019-05-06T14:38:34.469Z,27.68
2019-05-06T14:41:12.869Z,27.66
2019-05-06T14:43:42.831Z,27.65
2019-05-06T14:46:12.634Z,27.63
2019-05-06T14:48:43.658Z,27.61
2019-05-06T14:51:13.370Z,27.60
2019-05-06T14:53:43.680Z,27.57
2019-05-06T14:56:32.408Z,27.60
2019-05-06T14:59:06.332Z,27.59
2019-05-06T15:01:38.006Z,27.57
2019-05-06T15:04:07.455Z,27.58
2019-05-06T15:06:37.165Z,27.55
2019-05-06T15:09:09.348Z,27.56
2019-05-06T15:11:38.826Z,27.54
2019-05-06T15:14:08.537Z,27.52
2019-05-06T15:16:38.094Z,27.56
2019-05-06T15:19:07.563Z,27.51
2019-05-06T15:21:38.867Z,27.51
2019-05-06T15:24:08.438Z,27.50
2019-05-06T15:26:37.970Z,27.49
2019-05-06T15:29:07.553Z,27.48
2019-05-06T15:31:52.698Z,27.46
2019-05-06T15:34:27.073Z,27.45
2019-05-06T15:37:06.061Z,27.45
2019-05-06T15:39:35.661Z,27.44
2019-05-06T15:42:05.236Z,27.43
2019-05-06T15:44:35.485Z,27.43
2019-05-06T15:47:05.172Z,27.43
2019-05-06T15:49:34.738Z,27.41
2019-05-06T15:52:04.212Z,27.43
2019-05-06T15:54:34.169Z,27.40
2019-05-06T15:57:03.741Z,27.39
2019-05-06T15:59:33.707Z,27.38
2019-05-06T16:02:03.354Z,27.36
2019-05-06T16:04:32.941Z,27.37
2019-05-06T16:07:02.965Z,27.37
2019-05-06T16:09:33.031Z,27.33
2019-05-06T16:12:03.024Z,27.42
2019-05-06T16:14:34.847Z,27.53
2019-05-06T16:17:04.241Z,27.60
2019-05-06T16:19:33.997Z,27.77
2019-05-06T16:22:04.235Z,27.94
2019-05-06T16:24:42.833Z,28.11
2019-05-06T16:27:12.526Z,28.28
2019-05-06T16:29:42.941Z,28.55
2019-05-06T16:32:12.929Z,28.84
2019-05-06T16:34:43.150Z,28.96
2019-05-06T16:37:13.523Z,29.01
2019-05-06T16:39:43.069Z,29.01
2019-05-06T16:42:13.095Z,29.05
2019-05-06T16:44:45.174Z,29.09
2019-05-06T16:47:32.939Z,29.05
2019-05-06T16:50:02.516Z,29.07
2019-05-06T16:52:33.352Z,29.09
2019-05-06T16:55:03.559Z,29.12
2019-05-06T16:57:33.379Z,29.18
2019-05-06T17:00:03.888Z,29.22
2019-05-06T17:02:56.489Z,29.37
2019-05-06T17:05:33.673Z,29.54
2019-05-06T17:08:03.432Z,29.48
2019-05-06T17:10:32.952Z,29.48
2019-05-06T17:13:03.055Z,29.53
2019-05-06T17:15:32.947Z,29.48
2019-05-06T17:18:03.259Z,29.45
2019-05-06T17:20:33.046Z,29.46
2019-05-06T17:23:03.092Z,29.45
2019-05-06T17:25:33.721Z,29.40
2019-05-06T17:28:25.517Z,29.36
2019-05-06T17:31:13.236Z,29.31
2019-05-06T17:33:43.692Z,29.24
2019-05-06T17:36:15.002Z,29.18
2019-05-06T17:38:46.980Z,29.15
2019-05-06T17:41:16.656Z,29.11
2019-05-06T17:43:46.203Z,29.06
2019-05-06T17:46:17.855Z,29.03
2019-05-06T17:49:09.316Z,28.99
2019-05-06T17:52:02.829Z,28.94
2019-05-06T17:54:32.625Z,28.88
2019-05-06T17:57:04.432Z,28.80
2019-05-06T17:59:37.157Z,28.76
2019-05-06T18:02:08.682Z,28.73
2019-05-06T18:04:38.303Z,28.71
2019-05-06T18:07:07.867Z,28.66
2019-05-06T18:09:37.426Z,28.65
2019-05-06T18:12:08.075Z,28.61
2019-05-06T18:14:37.551Z,28.56
2019-05-06T18:17:07.059Z,28.51
2019-05-06T18:19:36.595Z,28.49
2019-05-06T18:22:06.201Z,28.44
2019-05-06T18:24:35.698Z,28.42
2019-05-06T18:27:05.447Z,28.37
2019-05-06T18:29:34.929Z,28.32
2019-05-06T18:32:04.559Z,28.29
2019-05-06T18:34:34.063Z,28.24
2019-05-06T18:37:03.770Z,28.22
2019-05-06T18:39:34.055Z,28.19
2019-05-06T18:42:15.455Z,28.14
2019-05-06T18:44:35.021Z,28.13
2019-05-06T18:47:05.148Z,28.08
2019-05-06T18:49:34.738Z,28.03
2019-05-06T18:52:04.289Z,28.00
2019-05-06T18:54:34.131Z,27.97
2019-05-06T18:57:04.988Z,27.93
2019-05-06T18:59:36.932Z,27.90
2019-05-06T19:02:06.105Z,27.87
2019-05-06T19:04:52.143Z,27.83
2019-05-06T19:07:22.059Z,27.79
2019-05-06T19:10:15.661Z,27.79
2019-05-06T19:12:45.198Z,27.76
2019-05-06T19:15:14.955Z,27.73
2019-05-06T19:17:44.520Z,27.69
2019-05-06T19:20:14.538Z,27.67
2019-05-06T19:22:44.007Z,27.63
2019-05-06T19:25:14.663Z,27.62
2019-05-06T19:27:50.151Z,27.59
2019-05-06T19:30:19.936Z,27.57
2019-05-06T19:32:49.505Z,27.56
2019-05-06T19:35:19.105Z,27.56
2019-05-06T19:37:48.679Z,27.83
2019-05-06T19:40:18.187Z,28.06
2019-05-06T19:42:50.206Z,28.22
2019-05-06T19:45:19.307Z,28.40
2019-05-06T19:47:48.819Z,28.51
2019-05-06T19:50:21.128Z,28.66
2019-05-06T19:52:52.798Z,28.71
2019-05-06T19:55:23.103Z,28.64
2019-05-06T19:57:52.773Z,28.58
2019-05-06T20:00:22.925Z,28.55
2019-05-06T20:02:52.635Z,28.52
2019-05-06T20:05:47.031Z,28.51
2019-05-06T20:08:38.606Z,28.43
2019-05-06T20:11:16.188Z,28.38
2019-05-06T20:13:45.692Z,28.37
2019-05-06T20:16:15.226Z,28.44
2019-05-06T20:18:44.892Z,28.44
2019-05-06T20:21:14.387Z,28.39
2019-05-06T20:23:44.436Z,28.35
2019-05-06T20:26:13.971Z,28.30
2019-05-06T20:28:43.478Z,28.30
2019-05-06T20:31:15.407Z,28.28
2019-05-06T20:33:44.944Z,28.25
2019-05-06T20:36:14.493Z,28.26
2019-05-06T20:38:44.058Z,28.34
2019-05-06T20:41:16.838Z,28.36
2019-05-06T20:43:46.586Z,28.77
2019-05-06T20:46:16.132Z,28.76
2019-05-06T20:48:45.712Z,28.64
2019-05-06T20:51:16.212Z,28.56
2019-05-06T20:53:45.782Z,28.51
2019-05-06T20:56:15.397Z,28.42
2019-05-06T20:58:45.154Z,28.41
2019-05-06T21:01:14.812Z,28.36
2019-05-06T21:03:44.337Z,28.33
2019-05-06T21:06:13.995Z,28.29
2019-05-06T21:08:43.583Z,28.29
2019-05-06T21:11:25.875Z,28.25
2019-05-06T21:13:44.612Z,28.18
2019-05-06T21:16:14.250Z,28.16
2019-05-06T21:23:42.757Z,28.10
2019-05-06T21:26:13.664Z,28.08
2019-05-06T21:28:46.262Z,28.36
2019-05-06T21:31:16.166Z,28.61
2019-05-06T21:33:45.740Z,28.59
2019-05-06T21:36:15.255Z,28.49
2019-05-06T21:38:44.775Z,28.45
2019-05-06T21:41:17.465Z,28.37
2019-05-06T21:43:49.672Z,28.33
2019-05-06T21:46:16.825Z,28.26
2019-05-06T21:48:46.284Z,28.20
2019-05-06T21:51:15.822Z,28.20
2019-05-06T21:53:45.381Z,28.17
2019-05-06T21:56:15.270Z,28.12
2019-05-06T21:58:44.796Z,28.16
2019-05-06T22:01:14.533Z,28.26
2019-05-06T22:03:44.117Z,28.22
2019-05-06T22:06:13.821Z,28.14
2019-05-06T22:08:43.305Z,28.08
2019-05-06T22:11:12.802Z,28.02
2019-05-06T22:13:42.700Z,27.98
2019-05-06T22:16:12.630Z,27.96
2019-05-06T22:18:43.216Z,27.95
2019-05-06T22:21:25.232Z,27.86
2019-05-06T22:23:56.868Z,27.88
2019-05-06T22:26:27.167Z,27.82
2019-05-06T22:28:56.902Z,27.76
2019-05-06T22:31:27.130Z,27.69
2019-05-06T22:33:56.736Z,27.64
2019-05-06T22:36:26.218Z,27.65
2019-05-06T22:38:55.844Z,27.60
2019-05-06T22:41:25.618Z,27.56
2019-05-06T22:43:55.203Z,27.54
2019-05-06T22:46:24.875Z,27.46
2019-05-06T22:48:54.810Z,27.43
2019-05-06T22:51:24.804Z,27.78
2019-05-06T22:53:54.322Z,28.27
2019-05-06T22:56:23.793Z,28.25
2019-05-06T22:58:53.237Z,27.99
2019-05-06T23:01:44.122Z,27.85
2019-05-06T23:04:14.772Z,27.77
2019-05-06T23:06:44.295Z,27.72
2019-05-06T23:09:13.941Z,27.68
2019-05-06T23:11:43.384Z,27.61
2019-05-06T23:14:27.047Z,27.58
2019-05-06T23:16:44.342Z,27.53
2019-05-06T23:19:13.755Z,27.49
2019-05-06T23:21:43.334Z,27.46
2019-05-06T23:24:13.262Z,27.39
2019-05-06T23:26:42.940Z,27.34
2019-05-06T23:29:13.050Z,27.31
2019-05-06T23:31:42.757Z,27.30
2019-05-06T23:34:12.664Z,27.26
2019-05-06T23:37:25.581Z,27.24
2019-05-06T23:40:42.751Z,27.19
2019-05-06T23:43:47.710Z,27.17
2019-05-06T23:46:53.060Z,27.15
2019-05-06T23:49:58.528Z,27.14
2019-05-06T23:53:03.723Z,27.10
2019-05-06T23:56:09.069Z,27.06
2019-05-06T23:58:38.594Z,27.06
